createdAt,value
2018-05-24T00:01:22.028Z,64.63
2018-05-24T00:03:49.601Z,64.72
2018-05-24T00:06:17.205Z,64.80
2018-05-24T00:08:44.813Z,64.99
2018-05-24T00:11:12.427Z,65.44
2018-05-24T00:13:40.013Z,65.42
2018-05-24T00:16:07.673Z,65.76
2018-05-24T00:18:35.258Z,65.82
2018-05-24T00:21:02.874Z,66.16
2018-05-24T00:23:30.485Z,66.03
2018-05-24T00:25:58.058Z,66.79
2018-05-24T00:28:25.672Z,67.01
2018-05-24T00:30:53.247Z,67.52
2018-05-24T00:33:20.862Z,67.24
2018-05-24T00:35:48.443Z,67.15
2018-05-24T00:38:16.064Z,67.16
2018-05-24T00:40:43.635Z,67.41
2018-05-24T00:43:11.813Z,67.84
2018-05-24T00:45:39.413Z,67.82
2018-05-24T00:48:06.992Z,68.26
2018-05-24T00:50:34.601Z,68.03
2018-05-24T00:53:02.169Z,68.19
2018-05-24T00:55:46.605Z,68.87
2018-05-24T00:58:14.186Z,68.15
2018-05-24T01:00:42.117Z,68.48
2018-05-24T01:03:09.762Z,68.61
2018-05-24T01:05:37.333Z,69.22
2018-05-24T01:08:04.951Z,68.09
2018-05-24T01:10:32.528Z,68.65
2018-05-24T01:13:00.140Z,68.75
2018-05-24T01:15:27.749Z,68.23
2018-05-24T01:17:55.330Z,67.65
2018-05-24T01:20:22.945Z,68.21
2018-05-24T01:22:50.517Z,67.93
2018-05-24T01:25:18.130Z,67.52
2018-05-24T01:27:45.708Z,67.65
2018-05-24T01:30:13.321Z,67.40
2018-05-24T01:32:40.949Z,66.53
2018-05-24T01:35:08.525Z,66.81
2018-05-24T01:37:47.749Z,66.57
2018-05-24T01:40:15.372Z,66.39
2018-05-24T01:42:42.953Z,66.44
2018-05-24T01:45:10.553Z,66.82
2018-05-24T01:47:38.453Z,66.13
2018-05-24T01:50:06.038Z,66.54
2018-05-24T01:52:33.608Z,67.07
2018-05-24T01:55:01.210Z,67.11
2018-05-24T01:57:28.810Z,66.59
2018-05-24T01:59:56.389Z,66.25
2018-05-24T02:02:24.083Z,66.44
2018-05-24T02:04:51.705Z,66.73
2018-05-24T02:07:19.320Z,67.20
2018-05-24T02:09:46.907Z,67.22
2018-05-24T02:12:14.485Z,67.60
2018-05-24T02:14:42.101Z,67.09
2018-05-24T02:17:09.673Z,67.28
2018-05-24T02:19:37.289Z,67.46
2018-05-24T02:22:04.865Z,67.31
2018-05-24T02:24:32.486Z,67.11
2018-05-24T02:27:00.101Z,67.29
2018-05-24T02:29:27.725Z,67.03
2018-05-24T02:31:55.344Z,67.48
2018-05-24T02:34:22.957Z,67.24
2018-05-24T02:36:50.539Z,66.93
2018-05-24T02:39:18.161Z,67.29
2018-05-24T02:41:45.797Z,67.47
2018-05-24T02:44:13.378Z,67.64
2018-05-24T02:46:41.002Z,67.84
2018-05-24T02:49:08.577Z,67.91
2018-05-24T02:51:36.194Z,68.28
2018-05-24T02:54:03.774Z,69.54
2018-05-24T02:56:31.397Z,69.59
2018-05-24T02:58:58.975Z,69.44
2018-05-24T03:01:26.561Z,69.37
2018-05-24T03:03:54.175Z,69.53
2018-05-24T03:06:21.764Z,69.18
2018-05-24T03:08:49.383Z,69.07
2018-05-24T03:11:16.973Z,69.07
2018-05-24T03:13:44.595Z,69.41
2018-05-24T03:16:12.188Z,69.14
2018-05-24T03:18:39.757Z,69.12
2018-05-24T03:21:07.377Z,68.91
2018-05-24T03:23:34.964Z,69.19
2018-05-24T03:26:02.584Z,69.22
2018-05-24T03:28:30.180Z,69.91
2018-05-24T03:30:57.805Z,69.63
2018-05-24T03:33:25.400Z,69.10
2018-05-24T03:35:53.038Z,68.05
2018-05-24T03:38:20.662Z,67.64
2018-05-24T03:40:48.248Z,68.09
2018-05-24T03:43:15.860Z,68.74
2018-05-24T03:45:43.477Z,68.83
2018-05-24T03:48:11.096Z,68.73
2018-05-24T03:50:38.678Z,68.71
2018-05-24T03:53:06.285Z,68.79
2018-05-24T03:55:33.892Z,68.47
2018-05-24T03:58:01.507Z,68.74
2018-05-24T04:00:40.792Z,68.45
2018-05-24T04:03:20.093Z,68.32
2018-05-24T04:05:47.764Z,67.98
2018-05-24T04:08:16.212Z,68.74
2018-05-24T04:10:43.892Z,68.15
2018-05-24T04:13:11.449Z,67.46
2018-05-24T04:15:39.076Z,67.77
2018-05-24T04:18:06.663Z,67.40
2018-05-24T04:20:34.277Z,67.00
2018-05-24T04:23:01.861Z,67.01
2018-05-24T04:25:29.478Z,66.86
2018-05-24T04:27:57.064Z,66.85
2018-05-24T04:30:24.685Z,66.79
2018-05-24T04:32:52.383Z,65.51
2018-05-24T04:35:19.908Z,63.64
2018-05-24T04:37:47.531Z,63.75
2018-05-24T04:40:15.121Z,63.58
2018-05-24T04:42:42.747Z,63.76
2018-05-24T04:45:10.515Z,63.31
2018-05-24T04:47:38.279Z,60.55
2018-05-24T04:50:05.894Z,55.17
2018-05-24T04:52:33.467Z,52.89
2018-05-24T04:55:01.157Z,52.86
2018-05-24T04:57:36.137Z,50.50
2018-05-24T05:00:08.398Z,47.42
2018-05-24T05:02:36.260Z,45.60
2018-05-24T05:05:03.894Z,45.03
2018-05-24T05:07:31.486Z,45.24
2018-05-24T05:09:59.113Z,43.01
2018-05-24T05:12:26.693Z,41.16
2018-05-24T05:14:54.291Z,38.97
2018-05-24T05:17:21.990Z,38.54
2018-05-24T05:19:49.577Z,37.48
2018-05-24T05:22:17.203Z,37.28
2018-05-24T05:24:44.778Z,36.86
2018-05-24T05:27:12.425Z,36.09
2018-05-24T05:29:40.002Z,35.83
2018-05-24T05:32:07.618Z,37.08
2018-05-24T05:34:35.241Z,36.29
2018-05-24T05:37:02.835Z,37.66
2018-05-24T05:39:30.476Z,36.91
2018-05-24T05:41:58.112Z,37.27
2018-05-24T05:44:25.700Z,38.08
2018-05-24T05:46:53.317Z,36.41
2018-05-24T05:49:20.903Z,36.47
2018-05-24T05:51:48.524Z,36.89
2018-05-24T05:54:16.118Z,35.47
2018-05-24T05:56:43.745Z,36.09
2018-05-24T05:59:11.332Z,36.79
2018-05-24T06:01:38.983Z,35.49
2018-05-24T06:04:06.582Z,35.95
2018-05-24T06:06:34.201Z,34.96
2018-05-24T06:09:01.777Z,35.67
2018-05-24T06:11:29.389Z,35.32
2018-05-24T06:13:57.055Z,35.63
2018-05-24T06:16:24.626Z,37.38
2018-05-24T06:18:52.238Z,36.37
2018-05-24T06:21:19.814Z,38.75
2018-05-24T06:23:47.425Z,38.15
2018-05-24T06:26:15.013Z,39.25
2018-05-24T06:28:42.651Z,39.83
2018-05-24T06:31:10.233Z,37.99
2018-05-24T06:33:37.952Z,37.35
2018-05-24T06:36:05.587Z,36.26
2018-05-24T06:38:33.232Z,34.24
2018-05-24T06:41:02.232Z,34.56
2018-05-24T06:43:34.568Z,36.55
2018-05-24T06:46:02.542Z,36.53
2018-05-24T06:48:30.153Z,34.41
2018-05-24T06:51:00.057Z,33.28
2018-05-24T06:53:27.701Z,32.71
2018-05-24T06:55:55.275Z,31.18
2018-05-24T06:58:22.925Z,33.17
2018-05-24T07:00:50.589Z,35.54
2018-05-24T07:03:18.162Z,33.49
2018-05-24T07:05:45.768Z,32.55
2018-05-24T07:08:13.373Z,32.39
2018-05-24T07:10:40.989Z,34.00
2018-05-24T07:13:08.682Z,34.76
2018-05-24T07:15:37.138Z,32.42
2018-05-24T07:18:04.755Z,31.97
2018-05-24T07:20:32.352Z,32.52
2018-05-24T07:23:00.001Z,32.84
2018-05-24T07:25:27.657Z,34.89
2018-05-24T07:27:55.274Z,32.23
2018-05-24T07:30:22.883Z,31.23
2018-05-24T07:32:50.562Z,31.59
2018-05-24T07:35:18.148Z,30.84
2018-05-24T07:37:45.792Z,30.86
2018-05-24T07:40:13.384Z,29.12
2018-05-24T07:42:41.009Z,30.50
2018-05-24T07:45:08.710Z,34.11
2018-05-24T07:47:36.317Z,34.06
2018-05-24T07:50:03.925Z,34.76
2018-05-24T07:52:31.590Z,35.02
2018-05-24T07:54:59.618Z,32.21
2018-05-24T07:57:27.395Z,33.65
2018-05-24T07:59:54.989Z,34.98
2018-05-24T08:02:22.591Z,35.71
2018-05-24T08:04:50.221Z,33.95
2018-05-24T08:07:17.815Z,33.66
2018-05-24T08:09:45.443Z,34.12
2018-05-24T08:12:13.154Z,33.92
2018-05-24T08:14:40.721Z,32.96
2018-05-24T08:17:08.372Z,33.17
2018-05-24T08:19:35.945Z,31.39
2018-05-24T08:22:03.673Z,31.79
2018-05-24T08:24:31.288Z,33.06
2018-05-24T08:26:59.017Z,33.96
2018-05-24T08:29:26.593Z,34.00
2018-05-24T08:31:54.237Z,34.59
2018-05-24T08:34:21.892Z,32.06
2018-05-24T08:36:49.525Z,32.77
2018-05-24T08:39:17.189Z,29.76
2018-05-24T08:41:44.815Z,29.47
2018-05-24T08:44:12.442Z,30.88
2018-05-24T08:46:40.021Z,30.93
2018-05-24T08:49:07.655Z,28.59
2018-05-24T08:51:35.269Z,29.18
2018-05-24T08:54:03.279Z,30.59
2018-05-24T08:56:30.858Z,29.74
2018-05-24T08:58:58.495Z,31.05
2018-05-24T09:01:26.098Z,30.30
2018-05-24T09:03:53.718Z,29.19
2018-05-24T09:06:21.385Z,30.76
2018-05-24T09:08:49.024Z,31.01
2018-05-24T09:11:16.648Z,31.48
2018-05-24T09:13:44.387Z,29.70
2018-05-24T09:16:11.976Z,29.00
2018-05-24T09:18:39.593Z,29.85
2018-05-24T09:21:07.204Z,30.04
2018-05-24T09:23:34.819Z,30.04
2018-05-24T09:26:02.455Z,31.46
2018-05-24T09:28:30.068Z,32.74
2018-05-24T09:30:57.706Z,32.59
2018-05-24T09:33:25.370Z,32.62
2018-05-24T09:35:53.616Z,34.22
2018-05-24T09:38:21.255Z,33.76
2018-05-24T09:40:48.877Z,34.36
2018-05-24T09:43:16.503Z,34.09
2018-05-24T09:45:44.138Z,33.26
2018-05-24T09:48:11.754Z,33.94
2018-05-24T09:50:39.326Z,33.40
2018-05-24T09:53:06.990Z,33.29
2018-05-24T09:55:34.574Z,34.54
2018-05-24T09:58:02.185Z,34.25
2018-05-24T10:00:29.811Z,34.38
2018-05-24T10:02:57.451Z,36.17
2018-05-24T10:05:32.166Z,35.38
2018-05-24T10:08:09.258Z,34.29
2018-05-24T10:35:12.081Z,36.53
2018-05-24T10:37:40.305Z,36.36
2018-05-24T10:40:07.932Z,37.57
2018-05-24T10:42:35.575Z,36.84
2018-05-24T10:45:03.214Z,35.71
2018-05-24T10:47:30.829Z,36.31
2018-05-24T10:49:58.425Z,35.37
2018-05-24T10:52:27.349Z,35.55
2018-05-24T10:54:55.073Z,35.52
2018-05-24T10:57:22.846Z,32.70
2018-05-24T10:59:50.469Z,35.14
2018-05-24T11:02:18.051Z,36.12
2018-05-24T11:04:45.681Z,36.31
2018-05-24T11:07:13.311Z,36.54
2018-05-24T11:09:41.970Z,36.80
2018-05-24T11:12:13.782Z,36.34
2018-05-24T11:14:42.881Z,36.00
2018-05-24T11:17:10.497Z,35.35
2018-05-24T11:19:38.198Z,35.86
2018-05-24T11:22:05.823Z,36.70
2018-05-24T11:24:33.621Z,36.75
2018-05-24T11:27:01.264Z,36.31
2018-05-24T11:29:37.565Z,36.63
2018-05-24T11:32:05.185Z,35.54
2018-05-24T11:34:32.813Z,35.98
2018-05-24T11:37:00.462Z,36.00
2018-05-24T11:39:28.164Z,36.00
2018-05-24T11:41:55.795Z,35.39
2018-05-24T11:44:23.422Z,35.63
2018-05-24T11:46:51.035Z,35.77
2018-05-24T11:49:18.661Z,35.47
2018-05-24T11:51:47.120Z,35.67
2018-05-24T11:54:14.809Z,35.95
2018-05-24T11:56:42.437Z,34.03
2018-05-24T11:59:10.085Z,35.73
2018-05-24T12:01:37.721Z,35.40
2018-05-24T12:04:05.317Z,34.81
2018-05-24T12:06:32.948Z,34.06
2018-05-24T12:09:00.554Z,34.40
2018-05-24T12:11:28.189Z,34.23
2018-05-24T12:13:55.817Z,34.91
2018-05-24T12:16:23.415Z,34.30
2018-05-24T12:18:51.082Z,34.04
2018-05-24T12:21:18.701Z,33.78
2018-05-24T12:23:46.355Z,34.48
2018-05-24T12:26:14.033Z,35.03
2018-05-24T12:28:41.656Z,34.93
2018-05-24T12:31:09.462Z,33.31
2018-05-24T12:33:37.189Z,34.57
2018-05-24T12:36:04.846Z,34.92
2018-05-24T12:38:32.576Z,33.81
2018-05-24T12:41:00.219Z,33.31
2018-05-24T12:43:27.900Z,33.61
2018-05-24T12:45:56.088Z,32.80
2018-05-24T12:48:23.677Z,32.45
2018-05-24T12:50:51.325Z,33.20
2018-05-24T12:53:18.923Z,34.17
2018-05-24T12:55:46.513Z,33.71
2018-05-24T12:58:14.127Z,33.26
2018-05-24T13:00:41.812Z,34.10
2018-05-24T13:03:09.660Z,32.76
2018-05-24T13:05:37.305Z,33.12
2018-05-24T13:08:04.929Z,33.13
2018-05-24T13:10:32.577Z,32.42
2018-05-24T13:13:00.333Z,32.80
2018-05-24T13:15:27.981Z,31.17
2018-05-24T13:17:55.633Z,32.35
2018-05-24T13:20:23.261Z,31.93
2018-05-24T13:22:50.852Z,32.11
2018-05-24T13:25:19.528Z,32.61
2018-05-24T13:27:47.381Z,32.81
2018-05-24T13:30:16.053Z,34.21
2018-05-24T13:32:43.902Z,34.37
2018-05-24T13:35:11.499Z,33.81
2018-05-24T13:37:39.143Z,32.50
2018-05-24T13:40:06.794Z,33.32
2018-05-24T13:42:34.637Z,33.76
2018-05-24T13:45:02.564Z,33.93
2018-05-24T13:47:30.265Z,34.27
2018-05-24T13:49:57.882Z,34.50
2018-05-24T13:52:25.505Z,33.49
2018-05-24T13:54:53.114Z,33.61
2018-05-24T13:57:32.457Z,33.37
2018-05-24T14:00:00.037Z,33.52
2018-05-24T14:02:27.622Z,34.16
2018-05-24T14:04:55.232Z,33.92
2018-05-24T14:07:23.457Z,33.89
2018-05-24T14:09:51.068Z,32.80
2018-05-24T14:12:18.702Z,33.51
2018-05-24T14:14:46.318Z,34.17
2018-05-24T14:17:13.928Z,34.05
2018-05-24T14:19:41.505Z,33.89
2018-05-24T14:22:09.134Z,33.78
2018-05-24T14:24:36.763Z,35.16
2018-05-24T14:27:04.405Z,33.51
2018-05-24T14:29:31.995Z,33.82
2018-05-24T14:31:59.593Z,34.79
2018-05-24T14:34:27.228Z,34.18
2018-05-24T14:36:54.809Z,33.07
2018-05-24T14:39:22.401Z,33.02
2018-05-24T14:41:50.031Z,32.92
2018-05-24T14:44:17.672Z,32.16
2018-05-24T14:46:45.493Z,32.44
2018-05-24T14:49:13.496Z,32.29
2018-05-24T14:51:41.165Z,32.35
2018-05-24T14:54:08.925Z,32.55
2018-05-24T14:56:36.622Z,32.94
2018-05-24T14:59:04.224Z,32.29
2018-05-24T15:01:31.877Z,32.99
2018-05-24T15:03:59.501Z,33.08
2018-05-24T15:06:27.115Z,34.02
2018-05-24T15:08:54.796Z,33.80
2018-05-24T15:11:23.517Z,34.67
2018-05-24T15:13:51.983Z,35.42
2018-05-24T15:16:19.565Z,34.28
2018-05-24T15:18:47.618Z,34.72
2018-05-24T15:21:15.501Z,34.68
2018-05-24T15:23:43.226Z,35.58
2018-05-24T15:26:10.882Z,35.53
2018-05-24T15:31:28.769Z,36.19
2018-05-24T15:33:56.415Z,36.48
2018-05-24T15:36:24.005Z,36.69
2018-05-24T15:38:54.627Z,36.75
2018-05-24T15:41:22.730Z,36.90
2018-05-24T15:43:50.346Z,36.15
2018-05-24T15:46:17.957Z,36.51
2018-05-24T15:48:45.578Z,36.26
2018-05-24T15:51:13.200Z,36.40
2018-05-24T15:53:40.837Z,36.70
2018-05-24T15:56:08.425Z,36.31
2018-05-24T15:58:36.053Z,36.71
2018-05-24T16:01:03.714Z,36.65
2018-05-24T16:03:31.312Z,35.95
2018-05-24T16:05:59.264Z,36.57
2018-05-24T16:08:27.254Z,36.79
2018-05-24T16:10:54.829Z,37.23
2018-05-24T16:13:22.462Z,37.79
2018-05-24T16:15:50.076Z,36.32
2018-05-24T16:18:17.699Z,36.02
2018-05-24T16:20:45.305Z,36.40
2018-05-24T16:23:12.914Z,36.61
2018-05-24T16:25:40.549Z,36.29
2018-05-24T16:28:08.166Z,36.77
2018-05-24T16:30:35.940Z,36.24
2018-05-24T16:33:03.561Z,36.11
2018-05-24T16:35:31.174Z,37.70
2018-05-24T16:37:58.757Z,38.84
2018-05-24T16:40:26.389Z,39.93
2018-05-24T16:42:59.622Z,39.92
2018-05-24T16:45:27.260Z,40.27
2018-05-24T16:47:54.954Z,40.34
2018-05-24T16:50:22.602Z,41.19
2018-05-24T16:52:53.072Z,41.28
2018-05-24T16:55:23.469Z,41.47
2018-05-24T16:57:51.049Z,41.45
2018-05-24T17:00:18.637Z,40.99
2018-05-24T17:02:46.360Z,41.60
2018-05-24T17:05:14.168Z,42.12
2018-05-24T17:07:41.829Z,42.23
2018-05-24T17:10:11.460Z,42.57
2018-05-24T17:12:39.152Z,42.61
2018-05-24T17:15:06.881Z,42.45
2018-05-24T17:17:35.749Z,42.78
2018-05-24T17:20:05.128Z,43.24
2018-05-24T17:22:32.741Z,43.63
2018-05-24T17:25:00.331Z,43.65
2018-05-24T17:27:27.953Z,43.56
2018-05-24T17:29:55.581Z,44.57
2018-05-24T17:32:31.528Z,44.02
2018-05-24T17:34:59.125Z,44.61
2018-05-24T17:37:26.778Z,44.68
2018-05-24T17:39:54.397Z,45.08
2018-05-24T17:42:21.986Z,45.55
2018-05-24T17:44:49.635Z,46.38
2018-05-24T17:47:18.938Z,45.79
2018-05-24T17:49:46.814Z,45.83
2018-05-24T17:52:14.420Z,46.21
2018-05-24T17:54:42.057Z,45.62
2018-05-24T17:57:09.707Z,45.60
2018-05-24T17:59:37.304Z,46.17
2018-05-24T18:02:04.950Z,46.53
2018-05-24T18:04:32.609Z,46.73
2018-05-24T18:08:56.149Z,46.97
2018-05-24T18:11:23.774Z,47.38
2018-05-24T18:13:51.424Z,47.87
2018-05-24T18:16:19.143Z,48.17
2018-05-24T18:18:46.781Z,47.88
2018-05-24T18:21:14.528Z,48.27
2018-05-24T18:23:42.173Z,48.26
2018-05-24T18:26:09.831Z,48.93
2018-05-24T18:28:37.541Z,48.60
2018-05-24T18:31:05.230Z,48.62
2018-05-24T18:33:33.057Z,49.13
2018-05-24T18:36:00.808Z,49.77
2018-05-24T18:38:28.593Z,49.12
2018-05-24T18:40:56.231Z,49.55
2018-05-24T18:43:23.837Z,49.59
2018-05-24T18:45:51.445Z,49.85
2018-05-24T18:48:19.064Z,50.58
2018-05-24T18:50:46.710Z,50.14
2018-05-24T18:53:14.337Z,50.52
2018-05-24T18:55:41.960Z,50.09
2018-05-24T18:58:09.601Z,50.35
2018-05-24T19:00:37.234Z,50.06
2018-05-24T19:03:04.865Z,50.34
2018-05-24T19:05:32.589Z,50.53
2018-05-24T19:08:00.216Z,50.56
2018-05-24T19:10:27.837Z,50.82
2018-05-24T19:12:55.453Z,50.90
2018-05-24T19:15:23.062Z,50.99
2018-05-24T19:17:50.673Z,50.63
2018-05-24T19:20:18.503Z,50.92
2018-05-24T19:22:46.113Z,51.25
2018-05-24T19:25:13.733Z,51.01
2018-05-24T19:27:41.346Z,50.62
2018-05-24T19:30:08.989Z,50.61
2018-05-24T19:32:36.632Z,51.42
2018-05-24T19:35:04.344Z,50.86
2018-05-24T19:37:31.980Z,50.87
2018-05-24T19:39:59.618Z,51.04
2018-05-24T19:42:27.884Z,51.15
2018-05-24T19:44:55.584Z,51.38
2018-05-24T19:47:23.531Z,51.75
2018-05-24T19:49:51.676Z,51.78
2018-05-24T19:52:19.307Z,51.77
2018-05-24T19:54:47.160Z,51.25
2018-05-24T19:57:14.801Z,51.77
2018-05-24T19:59:42.429Z,51.04
2018-05-24T20:02:10.076Z,50.64
2018-05-24T20:04:37.759Z,50.54
2018-05-24T20:07:05.440Z,50.21
2018-05-24T20:09:34.750Z,50.91
2018-05-24T20:12:02.477Z,51.35
2018-05-24T20:14:30.393Z,51.50
2018-05-24T20:16:58.100Z,52.05
2018-05-24T20:19:26.120Z,52.66
2018-05-24T20:21:53.889Z,52.66
2018-05-24T20:24:26.998Z,52.27
2018-05-24T20:27:03.936Z,51.99
2018-05-24T20:29:37.935Z,52.04
2018-05-24T20:32:11.793Z,52.04
2018-05-24T20:34:45.270Z,51.55
2018-05-24T20:37:20.547Z,50.63
2018-05-24T20:39:55.376Z,50.91
2018-05-24T20:42:29.338Z,50.82
2018-05-24T20:45:03.042Z,51.85
2018-05-24T20:47:35.871Z,51.73
2018-05-24T20:50:08.131Z,51.02
2018-05-24T20:52:41.784Z,51.53
2018-05-24T20:55:15.354Z,50.90
2018-05-24T20:57:49.472Z,51.36
2018-05-24T21:00:21.135Z,51.16
2018-05-24T21:02:55.465Z,51.11
2018-05-24T21:08:07.262Z,51.73
2018-05-24T21:10:40.097Z,51.85
2018-05-24T21:13:13.113Z,51.77
2018-05-24T21:15:46.689Z,51.84
2018-05-24T21:18:19.310Z,52.39
2018-05-24T21:20:52.568Z,52.97
2018-05-24T21:23:29.314Z,52.71
2018-05-24T21:26:02.996Z,52.99
2018-05-24T21:28:36.381Z,52.93
2018-05-24T21:31:11.648Z,53.40
2018-05-24T21:33:44.959Z,53.42
2018-05-24T21:36:19.428Z,54.09
2018-05-24T21:38:51.520Z,53.96
2018-05-24T21:41:22.790Z,54.06
2018-05-24T21:43:55.462Z,54.55
2018-05-24T21:46:29.437Z,54.75
2018-05-24T21:49:02.694Z,54.77
2018-05-24T21:51:36.408Z,55.36
2018-05-24T21:54:08.632Z,55.42
2018-05-24T21:56:41.996Z,55.49
2018-05-24T21:59:15.477Z,56.01
2018-05-24T22:01:49.038Z,56.02
2018-05-24T22:04:22.699Z,56.22
2018-05-24T22:06:56.666Z,56.60
2018-05-24T22:09:29.921Z,56.64
2018-05-24T22:11:57.797Z,57.12
2018-05-24T22:14:25.463Z,57.76
2018-05-24T22:16:53.190Z,57.46
2018-05-24T22:19:20.939Z,58.19
2018-05-24T22:21:48.636Z,57.76
2018-05-24T22:24:16.326Z,58.05
2018-05-24T22:26:44.027Z,57.77
2018-05-24T22:29:11.702Z,58.33
2018-05-24T22:31:39.361Z,58.37
2018-05-24T22:34:07.050Z,58.42
2018-05-24T22:36:34.758Z,58.76
2018-05-24T22:39:02.457Z,58.47
2018-05-24T22:41:30.181Z,58.54
2018-05-24T22:43:57.863Z,58.83
2018-05-24T22:46:25.513Z,59.06
2018-05-24T22:48:53.199Z,59.05
2018-05-24T22:51:20.863Z,59.43
2018-05-24T22:53:48.559Z,59.70
2018-05-24T22:56:16.292Z,59.65
2018-05-24T22:58:43.967Z,60.02
2018-05-24T23:01:11.665Z,60.15
2018-05-24T23:03:39.338Z,60.26
2018-05-24T23:06:06.986Z,60.86
2018-05-24T23:08:34.678Z,61.29
2018-05-24T23:11:02.372Z,61.27
2018-05-24T23:13:30.054Z,61.54
2018-05-24T23:15:57.732Z,61.56
2018-05-24T23:18:25.415Z,61.49
2018-05-24T23:20:53.169Z,62.08
2018-05-24T23:23:20.854Z,61.56
2018-05-24T23:25:48.511Z,61.64
2018-05-24T23:28:16.231Z,61.49
2018-05-24T23:30:43.906Z,61.62
2018-05-24T23:33:11.566Z,61.90
2018-05-24T23:35:39.265Z,61.80
2018-05-24T23:38:07.166Z,62.09
2018-05-24T23:40:34.857Z,61.87
2018-05-24T23:43:02.535Z,62.11
2018-05-24T23:45:30.245Z,62.41
2018-05-24T23:47:57.933Z,62.36
2018-05-24T23:50:25.625Z,62.39
2018-05-24T23:52:53.315Z,62.74
2018-05-24T23:55:21.013Z,62.73
2018-05-24T23:57:48.689Z,62.92
